Time;durP1;ratioP1;P1;durP2;ratioP2;P2;SDS_P1;SDS_P2;PMS_P1;PMS_P2;Temp;Humidity;BMP_temperature;BMP_pressure;BME280_temperature;BME280_humidity;BME280_pressure;Samples;Min_cycle;Max_cycle;Signal;HPM_P1;HPM_P2
2021/12/18 00:00:47;;;;;;;;;;;;;;;5.91;81.47;101578.40;1691568;83;20201;-89
2021/12/18 00:03:13;;;;;;;;;;;;;;;5.93;81.59;101572.59;1685829;83;20152;-88
2021/12/18 00:05:41;;;;;;;;;;;;;;;5.83;81.45;101586.71;1689756;83;20745;-88
2021/12/18 00:08:06;;;;;;;;;;;;;;;5.93;81.59;101581.77;1687407;83;20208;-88
2021/12/18 00:10:32;;;;;;;;;;;;;;;5.83;81.85;101585.87;1677298;83;20848;-88
2021/12/18 00:13:00;;;;;;;;;;;;;;;5.86;82.07;101590.94;1686023;83;20212;-89
2021/12/18 00:15:29;;;;;;;;;;;;;;;5.74;82.58;101601.19;1682021;83;20235;-87
2021/12/18 00:17:59;;;;;;;;;;;;;;;5.78;82.58;101598.39;1687206;83;20228;-88
2021/12/18 00:20:26;;;;;;;;;;;;;;;5.71;82.54;101579.56;1685401;83;20530;-89
2021/12/18 00:22:58;;;;;;;;;;;;;;;5.58;82.78;101575.51;1679699;83;22018;-88
2021/12/18 00:25:25;;;;;;;;;;;;;;;5.57;82.91;101575.12;1686625;83;21123;-88
2021/12/18 00:27:52;;;;;;;;;;;;;;;5.48;83.20;101575.64;1694168;83;20173;-89
2021/12/18 00:30:18;;;;;;;;;;;;;;;5.43;83.48;101575.91;1658003;83;20169;-86
2021/12/18 00:32:44;;;;;;;;;;;;;;;5.52;83.36;101579.79;1688713;83;20191;-89
2021/12/18 00:35:11;;;;;;;;;;;;;;;5.45;83.91;101600.71;1687265;83;21031;-90
2021/12/18 00:37:39;;;;;;;;;;;;;;;5.36;84.87;101601.62;1685518;83;20175;-89
2021/12/18 00:40:12;;;;;;;;;;;;;;;5.38;84.93;101602.37;1693757;83;20243;-87
2021/12/18 00:45:09;;;;;;;;;;;;;;;5.26;86.09;101616.15;1688716;83;20148;-88
2021/12/18 00:47:36;;;;;;;;;;;;;;;5.27;86.16;101620.47;1689779;83;22439;-91
2021/12/18 00:50:03;;;;;;;;;;;;;;;5.25;86.60;101632.81;1675138;83;20629;-89
2021/12/18 00:52:29;;;;;;;;;;;;;;;5.31;86.31;101632.44;1691275;83;20211;-91
2021/12/18 00:54:59;;;;;;;;;;;;;;;5.19;86.73;101635.77;1688001;83;20208;-89
2021/12/18 00:57:25;;;;;;;;;;;;;;;5.21;86.90;101635.21;1701268;83;20494;-88
2021/12/18 00:59:53;;;;;;;;;;;;;;;5.32;87.17;101655.09;1694017;83;21108;-90
2021/12/18 01:02:18;;;;;;;;;;;;;;;5.27;87.64;101651.06;1695285;83;20133;-90
2021/12/18 01:04:45;;;;;;;;;;;;;;;5.24;87.76;101643.37;1698520;83;20154;-90
2021/12/18 01:07:11;;;;;;;;;;;;;;;5.38;87.02;101637.73;1692526;83;20141;-91
2021/12/18 01:12:27;;;;;;;;;;;;;;;5.72;86.22;101629.75;1700143;83;20291;-91
2021/12/18 01:22:48;;;;;;;;;;;;;;;5.64;85.74;101644.60;1701870;83;20152;-86
2021/12/18 01:25:11;;;;;;;;;;;;;;;5.61;85.38;101634.73;1690260;83;20160;-86
2021/12/18 01:27:37;;;;;;;;;;;;;;;5.67;85.19;101630.45;1656247;83;20238;-86
2021/12/18 01:30:04;;;;;;;;;;;;;;;5.64;85.47;101634.56;1695425;83;20777;-88
2021/12/18 01:32:30;;;;;;;;;;;;;;;5.48;85.78;101633.28;1695178;83;20229;-89
2021/12/18 01:34:56;;;;;;;;;;;;;;;5.47;86.12;101622.41;1696357;83;20172;-87
2021/12/18 01:37:21;;;;;;;;;;;;;;;5.52;86.21;101617.31;1698631;83;22344;-88
2021/12/18 01:39:47;;;;;;;;;;;;;;;5.47;86.31;101611.94;1694979;83;20145;-87
2021/12/18 01:45:16;;;;;;;;;;;;;;;5.29;87.07;101613.36;1706379;83;20463;-88
2021/12/18 01:53:03;;;;;;;;;;;;;;;5.23;87.94;101622.87;1693242;83;20154;-87
2021/12/18 01:55:30;;;;;;;;;;;;;;;5.28;87.83;101629.99;1700124;83;20177;-87
2021/12/18 01:57:56;;;;;;;;;;;;;;;5.23;88.04;101625.48;1699538;83;20188;-87
2021/12/18 02:00:24;;;;;;;;;;;;;;;5.10;88.58;101629.25;1696764;83;20773;-88
2021/12/18 02:02:50;;;;;;;;;;;;;;;5.06;88.79;101632.12;1694086;83;21187;-81
2021/12/18 02:05:16;;;;;;;;;;;;;;;4.96;89.28;101626.55;1702752;83;20187;-86
2021/12/18 02:07:42;;;;;;;;;;;;;;;4.95;89.72;101623.55;1694551;83;20222;-85
2021/12/18 02:10:15;;;;;;;;;;;;;;;4.92;89.91;101638.94;1695841;83;20476;-86
2021/12/18 02:12:48;;;;;;;;;;;;;;;4.77;90.50;101639.76;1697085;83;20220;-86
2021/12/18 02:23:03;;;;;;;;;;;;;;;4.61;90.70;101645.80;1695485;83;20229;-86
2021/12/18 02:25:31;;;;;;;;;;;;;;;4.45;91.15;101650.99;1697028;83;20443;-85
2021/12/18 02:27:56;;;;;;;;;;;;;;;4.44;91.14;101655.00;1697674;83;21010;-85
2021/12/18 02:30:22;;;;;;;;;;;;;;;4.29;92.08;101648.33;1662485;83;20160;-85
2021/12/18 02:32:48;;;;;;;;;;;;;;;4.17;93.01;101652.88;1692453;83;20307;-86
2021/12/18 02:35:32;;;;;;;;;;;;;;;4.01;94.00;101645.41;1697420;83;20141;-85
2021/12/18 02:38:25;;;;;;;;;;;;;;;4.02;93.98;101632.73;1694392;83;20839;-85
2021/12/18 02:40:57;;;;;;;;;;;;;;;3.83;94.79;101624.97;1702785;83;20152;-85
2021/12/18 02:43:16;;;;;;;;;;;;;;;3.81;94.72;101626.35;1696755;83;21100;-86
2021/12/18 02:45:41;;;;;;;;;;;;;;;3.72;95.26;101633.34;1694363;83;20141;-86
2021/12/18 02:48:07;;;;;;;;;;;;;;;3.70;95.39;101626.05;1693010;83;20475;-86
2021/12/18 02:50:32;;;;;;;;;;;;;;;3.64;95.74;101623.73;1693051;83;20144;-86
2021/12/18 02:52:58;;;;;;;;;;;;;;;3.49;95.96;101631.37;1693536;83;21911;-85
2021/12/18 02:55:23;;;;;;;;;;;;;;;3.32;96.96;101626.11;1703922;83;20251;-85
2021/12/18 02:57:49;;;;;;;;;;;;;;;3.17;97.84;101627.23;1703934;83;20211;-85
2021/12/18 03:00:16;;;;;;;;;;;;;;;3.18;97.79;101643.26;1705363;83;20525;-85
2021/12/18 03:02:44;;;;;;;;;;;;;;;3.07;98.28;101639.47;1686192;83;20186;-86
2021/12/18 03:05:12;;;;;;;;;;;;;;;3.00;98.42;101641.06;1700519;83;20136;-86
2021/12/18 03:07:37;;;;;;;;;;;;;;;2.93;98.41;101645.32;1705228;83;20970;-87
2021/12/18 03:23:47;;;;;;;;;;;;;;;2.66;99.42;101641.74;1649990;85;20096;-87
2021/12/18 03:26:06;;;;;;;;;;;;;;;2.54;99.90;101642.28;1644590;85;20155;-87
2021/12/18 03:28:32;;;;;;;;;;;;;;;2.49;100.00;101638.57;1662926;83;20228;-86
2021/12/18 03:30:57;;;;;;;;;;;;;;;2.45;100.00;101633.09;1695915;83;21167;-86
2021/12/18 03:33:24;;;;;;;;;;;;;;;2.49;99.75;101613.33;1703814;83;20246;-87
2021/12/18 03:35:50;;;;;;;;;;;;;;;2.54;99.49;101618.34;1696197;83;20206;-87
2021/12/18 03:38:15;;;;;;;;;;;;;;;2.49;99.60;101618.55;1708206;83;20229;-86
2021/12/18 03:40:41;;;;;;;;;;;;;;;2.50;99.91;101613.73;1685222;83;20179;-87
2021/12/18 03:43:07;;;;;;;;;;;;;;;2.48;99.87;101614.70;1701321;83;22124;-87
2021/12/18 03:45:32;;;;;;;;;;;;;;;2.41;99.91;101621.95;1695756;83;20167;-86
2021/12/18 03:47:58;;;;;;;;;;;;;;;2.37;100.00;101625.59;1708647;83;20187;-86
2021/12/18 03:50:23;;;;;;;;;;;;;;;2.46;100.00;101625.20;1700683;83;20135;-86
2021/12/18 03:52:49;;;;;;;;;;;;;;;2.46;99.68;101633.02;1702558;83;20753;-87
2021/12/18 03:55:15;;;;;;;;;;;;;;;2.45;99.91;101650.87;1700122;83;21136;-87
2021/12/18 03:57:40;;;;;;;;;;;;;;;2.36;100.00;101636.93;1696958;82;20195;-87
2021/12/18 04:00:08;;;;;;;;;;;;;;;2.39;100.00;101626.37;1693825;82;20208;-88
2021/12/18 04:02:33;;;;;;;;;;;;;;;2.50;100.00;101637.20;1688022;83;20171;-89
2021/12/18 04:04:59;;;;;;;;;;;;;;;2.54;100.00;101643.59;1697738;83;20493;-87
2021/12/18 04:07:24;;;;;;;;;;;;;;;2.55;100.00;101649.17;1697156;83;20686;-87
2021/12/18 04:09:50;;;;;;;;;;;;;;;2.58;100.00;101634.69;1687265;83;20151;-87
2021/12/18 04:12:16;;;;;;;;;;;;;;;2.55;100.00;101638.30;1690866;83;20858;-87
2021/12/18 04:14:42;;;;;;;;;;;;;;;2.65;100.00;101640.03;1691894;83;20194;-87
2021/12/18 04:17:09;;;;;;;;;;;;;;;2.73;100.00;101634.01;1694122;83;20552;-87
2021/12/18 04:19:34;;;;;;;;;;;;;;;2.79;100.00;101638.12;1691048;83;21155;-86
2021/12/18 04:22:00;;;;;;;;;;;;;;;2.80;99.99;101627.61;1688057;83;20137;-86
2021/12/18 04:24:26;;;;;;;;;;;;;;;2.87;100.00;101636.87;1693142;83;20170;-87
2021/12/18 04:26:51;;;;;;;;;;;;;;;2.83;100.00;101637.91;1695563;83;20144;-87
2021/12/18 04:29:17;;;;;;;;;;;;;;;2.90;100.00;101632.41;1690968;83;20144;-87
2021/12/18 04:31:42;;;;;;;;;;;;;;;2.88;100.00;101633.79;1694058;83;21205;-88
2021/12/18 04:34:08;;;;;;;;;;;;;;;2.86;100.00;101635.16;1691050;83;20927;-87
2021/12/18 04:36:34;;;;;;;;;;;;;;;2.93;100.00;101629.20;1695573;83;20224;-88
2021/12/18 04:38:59;;;;;;;;;;;;;;;2.92;100.00;101622.75;1691930;83;20194;-88
2021/12/18 04:41:37;;;;;;;;;;;;;;;2.94;100.00;101618.33;1688351;83;20175;-88
2021/12/18 04:43:53;;;;;;;;;;;;;;;2.92;100.00;101625.36;1692041;83;20120;-88
2021/12/18 04:46:19;;;;;;;;;;;;;;;2.93;100.00;101619.23;1689819;83;20260;-88
2021/12/18 04:48:44;;;;;;;;;;;;;;;2.95;100.00;101618.69;1689697;83;20212;-88
2021/12/18 04:51:10;;;;;;;;;;;;;;;2.96;100.00;101611.26;1683455;83;20208;-88
2021/12/18 04:53:35;;;;;;;;;;;;;;;3.02;100.00;101613.59;1687728;83;20141;-88
2021/12/18 04:56:01;;;;;;;;;;;;;;;2.92;100.00;101614.92;1686579;83;21907;-87
2021/12/18 04:58:27;;;;;;;;;;;;;;;2.92;100.00;101621.44;1693709;83;20211;-87
2021/12/18 05:00:54;;;;;;;;;;;;;;;2.90;100.00;101621.98;1688019;83;20143;-88
2021/12/18 05:03:20;;;;;;;;;;;;;;;2.93;100.00;101608.80;1682147;83;20178;-88
2021/12/18 05:05:46;;;;;;;;;;;;;;;2.85;100.00;101617.80;1691632;83;20157;-88
2021/12/18 05:08:11;;;;;;;;;;;;;;;2.74;100.00;101618.76;1685704;83;21175;-88
2021/12/18 05:10:37;;;;;;;;;;;;;;;2.72;100.00;101616.69;1694226;83;20199;-87
2021/12/18 05:13:03;;;;;;;;;;;;;;;2.80;100.00;101621.09;1687534;83;20754;-88
2021/12/18 05:15:28;;;;;;;;;;;;;;;2.84;100.00;101617.44;1681285;83;20116;-89
2021/12/18 05:17:54;;;;;;;;;;;;;;;3.05;100.00;101612.14;1682300;83;20164;-87
2021/12/18 05:20:20;;;;;;;;;;;;;;;2.95;100.00;101610.86;1688677;83;21164;-87
2021/12/18 05:22:46;;;;;;;;;;;;;;;3.04;100.00;101603.91;1683949;83;20497;-87
2021/12/18 05:25:12;;;;;;;;;;;;;;;3.00;100.00;101603.69;1692183;83;20192;-87
2021/12/18 05:27:38;;;;;;;;;;;;;;;2.99;100.00;101596.30;1693909;83;20147;-87
2021/12/18 05:30:05;;;;;;;;;;;;;;;3.01;100.00;101600.14;1690883;83;20135;-87
2021/12/18 05:32:30;;;;;;;;;;;;;;;3.01;100.00;101598.37;1686276;83;21838;-84
2021/12/18 05:34:56;;;;;;;;;;;;;;;3.13;100.00;101592.20;1688519;83;20155;-90
2021/12/18 05:37:42;;;;;;;;;;;;;;;3.18;100.00;101596.27;1685414;83;20158;-88
2021/12/18 05:39:58;;;;;;;;;;;;;;;3.05;100.00;101587.34;1677904;83;21009;-89
2021/12/18 05:42:23;;;;;;;;;;;;;;;3.17;100.00;101589.37;1689175;83;20157;-89
2021/12/18 05:44:49;;;;;;;;;;;;;;;3.11;100.00;101595.33;1692012;83;22016;-89
2021/12/18 05:47:15;;;;;;;;;;;;;;;3.24;100.00;101601.20;1699643;83;20142;-90
2021/12/18 05:49:42;;;;;;;;;;;;;;;3.27;100.00;101613.75;1693187;83;20148;-89
2021/12/18 05:52:08;;;;;;;;;;;;;;;3.36;100.00;101612.00;1686163;83;20483;-89
2021/12/18 05:54:35;;;;;;;;;;;;;;;3.45;100.00;101621.14;1688285;83;20282;-87
2021/12/18 05:57:05;;;;;;;;;;;;;;;3.41;100.00;101626.98;1679486;83;21391;-88
2021/12/18 05:59:30;;;;;;;;;;;;;;;3.40;100.00;101621.36;1694317;83;20999;-88
2021/12/18 06:01:56;;;;;;;;;;;;;;;3.46;100.00;101617.63;1681690;83;20194;-88
2021/12/18 06:04:22;;;;;;;;;;;;;;;3.44;100.00;101617.70;1688708;83;20132;-88
2021/12/18 06:06:47;;;;;;;;;;;;;;;3.43;100.00;101613.37;1685690;83;20123;-88
2021/12/18 06:09:13;;;;;;;;;;;;;;;3.40;100.00;101622.23;1692913;83;21990;-87
2021/12/18 06:11:40;;;;;;;;;;;;;;;3.40;100.00;101617.45;1682261;83;20124;-88
2021/12/18 06:14:06;;;;;;;;;;;;;;;3.44;100.00;101615.55;1685403;83;20136;-88
2021/12/18 06:16:32;;;;;;;;;;;;;;;3.30;100.00;101613.13;1686018;83;20124;-88
2021/12/18 06:18:57;;;;;;;;;;;;;;;3.26;100.00;101613.34;1684664;83;20628;-89
2021/12/18 06:21:23;;;;;;;;;;;;;;;3.22;100.00;101623.10;1684902;83;21243;-88
2021/12/18 06:23:50;;;;;;;;;;;;;;;3.17;100.00;101622.01;1646283;83;20496;-90
2021/12/18 06:26:18;;;;;;;;;;;;;;;3.01;100.00;101610.58;1682412;83;20541;-89
2021/12/18 06:28:43;;;;;;;;;;;;;;;2.94;100.00;101614.41;1686278;83;20685;-89
2021/12/18 06:31:09;;;;;;;;;;;;;;;3.04;100.00;101618.27;1704759;83;20171;-90
2021/12/18 06:33:35;;;;;;;;;;;;;;;3.14;100.00;101614.33;1695944;83;21155;-90
2021/12/18 06:36:01;;;;;;;;;;;;;;;3.26;100.00;101613.34;1692728;83;20754;-92
2021/12/18 06:38:26;;;;;;;;;;;;;;;3.15;100.00;101617.30;1689412;83;20273;-89
2021/12/18 06:40:52;;;;;;;;;;;;;;;3.19;100.00;101622.77;1691886;83;20121;-90
2021/12/18 06:43:17;;;;;;;;;;;;;;;3.24;100.00;101612.95;1694970;83;20140;-87
2021/12/18 06:45:43;;;;;;;;;;;;;;;3.29;100.00;101612.73;1683594;83;21083;-87
2021/12/18 06:48:09;;;;;;;;;;;;;;;3.11;100.00;101607.94;1689695;83;20135;-90
2021/12/18 06:50:34;;;;;;;;;;;;;;;3.24;100.00;101609.03;1692986;83;20750;-88
2021/12/18 06:53:00;;;;;;;;;;;;;;;3.27;100.00;101604.61;1689620;83;20117;-89
2021/12/18 06:55:26;;;;;;;;;;;;;;;3.33;100.00;101606.92;1692262;83;20191;-88
2021/12/18 06:57:51;;;;;;;;;;;;;;;3.23;100.00;101596.92;1694570;83;21102;-89
2021/12/18 07:00:17;;;;;;;;;;;;;;;3.30;100.00;101592.24;1686046;83;21236;-88
2021/12/18 07:02:43;;;;;;;;;;;;;;;3.23;100.00;101598.23;1687267;82;20207;-87
2021/12/18 07:05:09;;;;;;;;;;;;;;;3.30;100.00;101596.63;1684630;83;20704;-87
2021/12/18 07:07:35;;;;;;;;;;;;;;;3.31;100.00;101593.08;1696594;83;20192;-86
2021/12/18 07:10:01;;;;;;;;;;;;;;;3.21;100.00;101585.69;1683087;83;21144;-87
2021/12/18 07:12:29;;;;;;;;;;;;;;;3.27;100.00;101591.55;1693350;82;20593;-89
2021/12/18 07:14:54;;;;;;;;;;;;;;;3.16;100.00;101585.06;1684190;83;20145;-88
2021/12/18 07:17:20;;;;;;;;;;;;;;;3.33;100.00;101586.04;1692094;82;20126;-89
2021/12/18 07:19:45;;;;;;;;;;;;;;;3.29;100.00;101574.04;1690656;83;20172;-88
2021/12/18 07:22:13;;;;;;;;;;;;;;;3.37;100.00;101571.89;1698539;83;21129;-87
2021/12/18 07:24:38;;;;;;;;;;;;;;;3.37;100.00;101572.77;1686417;83;20207;-87
2021/12/18 07:27:04;;;;;;;;;;;;;;;3.27;100.00;101578.50;1686902;83;20167;-88
2021/12/18 07:29:30;;;;;;;;;;;;;;;3.30;100.00;101564.00;1694644;83;20750;-89
2021/12/18 07:31:55;;;;;;;;;;;;;;;3.20;100.00;101567.48;1698024;83;20179;-87
2021/12/18 07:34:21;;;;;;;;;;;;;;;3.29;100.00;101568.82;1688398;83;22384;-90
2021/12/18 07:36:46;;;;;;;;;;;;;;;3.27;100.00;101573.28;1686120;83;20163;-92
2021/12/18 07:39:15;;;;;;;;;;;;;;;3.19;100.00;101573.64;1691281;83;20448;-92
2021/12/18 07:41:43;;;;;;;;;;;;;;;3.18;100.00;101580.61;1690729;83;20153;-88
2021/12/18 07:44:10;;;;;;;;;;;;;;;3.17;100.00;101584.16;1674177;83;20130;-86
2021/12/18 07:46:36;;;;;;;;;;;;;;;3.10;100.00;101581.44;1690736;83;21092;-88
2021/12/18 07:49:03;;;;;;;;;;;;;;;3.07;100.00;101585.50;1693302;82;20369;-90
2021/12/18 07:51:29;;;;;;;;;;;;;;;3.10;100.00;101587.13;1690207;83;20205;-88
2021/12/18 07:53:55;;;;;;;;;;;;;;;3.07;100.00;101593.33;1693986;82;20477;-89
2021/12/18 07:56:21;;;;;;;;;;;;;;;3.06;100.00;101596.84;1693027;83;20221;-86
2021/12/18 07:58:46;;;;;;;;;;;;;;;3.07;100.00;101592.02;1686575;83;21104;-89
2021/12/18 08:01:12;;;;;;;;;;;;;;;3.07;100.00;101598.55;1689423;83;20164;-89
2021/12/18 08:03:40;;;;;;;;;;;;;;;3.14;100.00;101599.97;1686788;83;20150;-88
2021/12/18 08:06:06;;;;;;;;;;;;;;;3.03;100.00;101603.52;1695218;83;20438;-89
2021/12/18 08:08:31;;;;;;;;;;;;;;;3.12;100.00;101601.78;1692039;83;20108;-90
2021/12/18 08:10:57;;;;;;;;;;;;;;;3.11;100.00;101590.11;1686913;83;21138;-87
2021/12/18 08:13:22;;;;;;;;;;;;;;;2.93;100.00;101598.36;1696377;83;20152;-88
2021/12/18 08:15:48;;;;;;;;;;;;;;;2.86;100.00;101610.38;1685247;83;20489;-87
2021/12/18 08:18:14;;;;;;;;;;;;;;;2.90;100.00;101596.72;1688190;83;20154;-88
2021/12/18 08:20:39;;;;;;;;;;;;;;;2.86;100.00;101581.68;1692028;83;21130;-87
2021/12/18 08:23:05;;;;;;;;;;;;;;;2.80;100.00;101596.31;1688284;83;20996;-88
2021/12/18 08:25:30;;;;;;;;;;;;;;;2.84;100.00;101593.95;1688826;83;20184;-88
2021/12/18 08:27:59;;;;;;;;;;;;;;;2.78;100.00;101582.50;1689298;83;20193;-87
2021/12/18 08:30:25;;;;;;;;;;;;;;;2.91;100.00;101585.38;1693928;83;20209;-87
2021/12/18 08:32:50;;;;;;;;;;;;;;;2.81;100.00;101584.97;1689434;83;20518;-86
2021/12/18 08:35:16;;;;;;;;;;;;;;;2.80;100.00;101585.04;1688778;83;21878;-88
2021/12/18 08:37:41;;;;;;;;;;;;;;;2.75;100.00;101582.64;1688235;83;20171;-88
2021/12/18 08:40:08;;;;;;;;;;;;;;;2.79;100.00;101583.33;1685704;83;20179;-89
2021/12/18 08:42:33;;;;;;;;;;;;;;;2.77;100.00;101577.35;1684125;83;20228;-87
2021/12/18 08:44:59;;;;;;;;;;;;;;;2.64;100.00;101577.05;1684020;83;20389;-88
2021/12/18 08:47:25;;;;;;;;;;;;;;;2.69;100.00;101575.09;1689821;83;21078;-89
2021/12/18 08:49:52;;;;;;;;;;;;;;;2.72;100.00;101572.34;1694041;83;20202;-86
2021/12/18 08:52:18;;;;;;;;;;;;;;;2.86;100.00;101564.72;1684588;83;20219;-87
2021/12/18 08:54:44;;;;;;;;;;;;;;;2.83;100.00;101590.11;1686416;83;20599;-86
2021/12/18 08:57:10;;;;;;;;;;;;;;;2.84;100.00;101560.05;1700513;83;20223;-87
2021/12/18 08:59:37;;;;;;;;;;;;;;;2.90;100.00;101550.23;1676844;83;21317;-87
2021/12/18 09:02:03;;;;;;;;;;;;;;;3.08;100.00;101553.27;1675630;85;20188;-87
2021/12/18 09:04:28;;;;;;;;;;;;;;;2.99;100.00;101537.58;1677755;85;20242;-87
2021/12/18 09:06:54;;;;;;;;;;;;;;;2.93;100.00;101540.95;1684035;85;20176;-87
2021/12/18 09:09:20;;;;;;;;;;;;;;;2.86;100.00;101525.59;1680901;85;20196;-87
2021/12/18 09:11:45;;;;;;;;;;;;;;;2.85;100.00;101524.35;1679914;83;21151;-88
2021/12/18 09:14:11;;;;;;;;;;;;;;;2.79;100.00;101518.95;1679550;85;21198;-89
2021/12/18 09:16:37;;;;;;;;;;;;;;;2.80;100.00;101512.00;1676892;85;20509;-88
2021/12/18 09:19:02;;;;;;;;;;;;;;;2.75;100.00;101506.12;1678384;84;20147;-89
2021/12/18 09:21:34;;;;;;;;;;;;;;;2.62;100.00;101508.47;1677048;85;20200;-89
2021/12/18 09:24:01;;;;;;;;;;;;;;;2.58;100.00;101508.22;1680765;85;20671;-86
2021/12/18 09:26:28;;;;;;;;;;;;;;;2.48;100.00;101505.20;1677659;84;20204;-88
2021/12/18 09:28:59;;;;;;;;;;;;;;;2.46;100.00;101496.14;1674899;85;20191;-90
2021/12/18 09:31:28;;;;;;;;;;;;;;;2.49;100.00;101516.86;1655583;85;20383;-88
2021/12/18 09:33:55;;;;;;;;;;;;;;;2.50;100.00;101495.09;1673742;85;20152;-87
2021/12/18 09:36:21;;;;;;;;;;;;;;;2.47;100.00;101495.23;1673821;85;21082;-87
2021/12/18 09:38:48;;;;;;;;;;;;;;;2.40;100.00;101487.30;1677728;85;20230;-89
2021/12/18 09:41:14;;;;;;;;;;;;;;;2.42;100.00;101494.58;1671528;85;21108;-89
2021/12/18 09:43:40;;;;;;;;;;;;;;;2.47;100.00;101500.45;1668383;83;20195;-89
2021/12/18 09:46:08;;;;;;;;;;;;;;;2.50;100.00;101495.09;1677288;85;20144;-88
2021/12/18 09:48:34;;;;;;;;;;;;;;;2.55;100.00;101487.50;1673831;83;21231;-89
2021/12/18 09:51:05;;;;;;;;;;;;;;;2.47;100.00;101482.63;1675244;83;20238;-90
2021/12/18 09:53:30;;;;;;;;;;;;;;;2.50;100.00;101478.58;1676787;85;20129;-87
2021/12/18 09:55:55;;;;;;;;;;;;;;;2.31;100.00;101468.16;1672970;85;20167;-86
2021/12/18 09:58:21;;;;;;;;;;;;;;;2.59;100.00;101464.28;1677374;84;20179;-86
2021/12/18 10:00:47;;;;;;;;;;;;;;;2.48;100.00;101470.83;1677119;85;21071;-87
2021/12/18 10:03:12;;;;;;;;;;;;;;;2.49;100.00;101455.58;1673558;85;20135;-88
2021/12/18 10:05:38;;;;;;;;;;;;;;;2.55;100.00;101450.55;1676048;85;20191;-88
2021/12/18 10:08:09;;;;;;;;;;;;;;;2.46;100.00;101460.94;1671776;85;20208;-87
2021/12/18 10:10:35;;;;;;;;;;;;;;;2.47;100.00;101456.56;1676633;83;20493;-87
2021/12/18 10:13:04;;;;;;;;;;;;;;;2.51;100.00;101462.87;1677758;83;21147;-88
2021/12/18 10:15:29;;;;;;;;;;;;;;;2.49;100.00;101445.16;1674699;84;20140;-88
2021/12/18 10:18:08;;;;;;;;;;;;;;;2.59;100.00;101448.63;1659415;85;33056;-88
2021/12/18 10:20:35;;;;;;;;;;;;;;;2.51;100.00;101444.61;1675810;85;20201;-90
2021/12/18 10:23:05;;;;;;;;;;;;;;;2.49;100.00;101451.67;1678288;85;20177;-89
2021/12/18 10:25:38;;;;;;;;;;;;;;;2.48;100.00;101438.23;1676804;85;21108;-88
2021/12/18 10:28:14;;;;;;;;;;;;;;;2.46;100.00;101425.75;1680031;85;20160;-87
2021/12/18 10:30:34;;;;;;;;;;;;;;;2.48;100.00;101426.51;1672404;84;20139;-84
2021/12/18 10:33:03;;;;;;;;;;;;;;;2.57;100.00;101411.37;1677063;85;20242;-85
2021/12/18 10:35:41;;;;;;;;;;;;;;;2.39;100.00;101415.67;1676437;85;20214;-85
2021/12/18 10:38:07;;;;;;;;;;;;;;;2.41;100.00;101401.66;1675796;85;21233;-83
2021/12/18 10:40:43;;;;;;;;;;;;;;;2.31;100.00;101427.30;1677245;85;20852;-86
2021/12/18 10:43:08;;;;;;;;;;;;;;;2.37;100.00;101410.53;1669204;85;20509;-84
2021/12/18 10:45:34;;;;;;;;;;;;;;;2.41;100.00;101397.75;1675740;85;20175;-87
2021/12/18 10:48:08;;;;;;;;;;;;;;;2.47;100.00;101398.77;1676265;85;20202;-84
2021/12/18 10:50:40;;;;;;;;;;;;;;;2.42;100.00;101403.33;1676264;85;21182;-87
2021/12/18 10:53:12;;;;;;;;;;;;;;;2.46;100.00;101386.64;1678477;85;20311;-80
2021/12/18 10:55:41;;;;;;;;;;;;;;;2.34;100.00;101388.52;1680182;84;20157;-82
2021/12/18 10:58:09;;;;;;;;;;;;;;;2.48;100.00;101380.88;1678218;83;20196;-84
2021/12/18 11:00:39;;;;;;;;;;;;;;;2.47;100.00;101387.47;1703047;83;20202;-83
2021/12/18 11:03:26;;;;;;;;;;;;;;;2.43;100.00;101389.39;1694839;83;21175;-83
2021/12/18 11:06:07;;;;;;;;;;;;;;;2.37;100.00;101371.44;1699313;83;20231;-83
2021/12/18 11:08:34;;;;;;;;;;;;;;;2.53;100.00;101366.79;1687663;83;20468;-84
2021/12/18 11:13:48;;;;;;;;;;;;;;;2.48;100.00;101350.90;1698332;83;20159;-83
2021/12/18 11:16:16;;;;;;;;;;;;;;;2.50;100.00;101343.87;1695591;82;21060;-82
2021/12/18 11:18:42;;;;;;;;;;;;;;;2.50;100.00;101336.05;1700106;83;20139;-82
2021/12/18 11:21:07;;;;;;;;;;;;;;;2.40;100.00;101343.91;1702462;83;20147;-83
2021/12/18 11:24:04;;;;;;;;;;;;;;;2.29;100.00;101343.59;1698944;82;20144;-88
2021/12/18 11:26:33;;;;;;;;;;;;;;;2.34;100.00;101332.48;1704184;82;20279;-85
2021/12/18 11:28:59;;;;;;;;;;;;;;;2.44;100.00;101319.39;1701327;83;21189;-86
2021/12/18 11:31:26;;;;;;;;;;;;;;;2.50;100.00;101329.53;1700064;83;20112;-85
2021/12/18 11:33:53;;;;;;;;;;;;;;;2.46;100.00;101341.02;1701925;83;20169;-86
2021/12/18 11:36:19;;;;;;;;;;;;;;;2.36;100.00;101322.81;1699074;83;20218;-87
2021/12/18 11:38:44;;;;;;;;;;;;;;;2.36;100.00;101320.20;1696602;82;20191;-85
2021/12/18 11:41:17;;;;;;;;;;;;;;;2.34;100.00;101329.88;1702912;83;21179;-86
2021/12/18 11:43:45;;;;;;;;;;;;;;;2.41;100.00;101305.20;1704250;83;20168;-87
2021/12/18 11:46:32;;;;;;;;;;;;;;;2.43;100.00;101313.78;1702480;82;21046;-87
2021/12/18 11:49:03;;;;;;;;;;;;;;;2.32;100.00;101299.14;1696670;83;21156;-85
2021/12/18 11:51:29;;;;;;;;;;;;;;;2.26;100.00;101307.25;1703002;83;20540;-83
2021/12/18 11:53:55;;;;;;;;;;;;;;;2.32;100.00;101290.84;1702704;83;21086;-85
2021/12/18 11:56:20;;;;;;;;;;;;;;;2.37;100.00;101303.66;1699515;83;20218;-86
2021/12/18 11:58:47;;;;;;;;;;;;;;;2.57;100.00;101302.68;1699821;82;20212;-85
2021/12/18 12:01:18;;;;;;;;;;;;;;;2.55;100.00;101291.49;1687626;83;20219;-84
2021/12/18 12:03:54;;;;;;;;;;;;;;;2.46;100.00;101292.78;1692527;83;20179;-86
2021/12/18 12:06:28;;;;;;;;;;;;;;;2.39;100.00;101339.61;1695496;83;21102;-89
2021/12/18 12:11:56;;;;;;;;;;;;;;;2.19;100.00;101290.21;1688435;83;20166;-85
2021/12/18 12:14:25;;;;;;;;;;;;;;;2.20;100.00;101278.88;1691958;83;20219;-86
2021/12/18 12:16:59;;;;;;;;;;;;;;;2.18;100.00;101282.03;1687497;83;20877;-86
2021/12/18 12:19:39;;;;;;;;;;;;;;;2.21;100.00;101284.48;1692439;83;21012;-87
2021/12/18 12:22:06;;;;;;;;;;;;;;;2.17;100.00;101252.97;1689901;83;20224;-85
2021/12/18 12:24:34;;;;;;;;;;;;;;;2.27;100.00;101239.85;1695807;83;20135;-87
2021/12/18 12:27:27;;;;;;;;;;;;;;;2.17;100.00;101242.55;1671026;83;20256;-85
2021/12/18 12:29:55;;;;;;;;;;;;;;;2.30;100.00;101237.96;1698415;83;20196;-81
2021/12/18 12:32:21;;;;;;;;;;;;;;;2.29;100.00;101225.84;1692444;83;21460;-87
2021/12/18 12:35:01;;;;;;;;;;;;;;;2.17;100.00;101251.66;1690117;83;20558;-84
2021/12/18 12:37:29;;;;;;;;;;;;;;;2.25;100.00;101213.03;1690199;83;20190;-84
2021/12/18 12:40:04;;;;;;;;;;;;;;;2.18;100.00;101210.37;1692477;83;20210;-84
2021/12/18 12:42:31;;;;;;;;;;;;;;;2.28;100.00;101218.09;1665753;83;20527;-87
2021/12/18 12:45:04;;;;;;;;;;;;;;;2.22;100.00;101232.30;1690884;83;21141;-82
2021/12/18 12:47:27;;;;;;;;;;;;;;;2.26;100.00;101225.98;1687530;83;20699;-83
2021/12/18 12:49:55;;;;;;;;;;;;;;;2.07;100.00;101231.27;1686395;83;20162;-85
2021/12/18 12:52:23;;;;;;;;;;;;;;;2.29;100.00;101213.28;1667865;83;20508;-85
2021/12/18 12:54:57;;;;;;;;;;;;;;;2.16;100.00;101243.02;1693435;83;21105;-85
2021/12/18 12:57:27;;;;;;;;;;;;;;;2.21;100.00;101203.23;1693796;83;21182;-83
2021/12/18 13:00:09;;;;;;;;;;;;;;;2.22;100.00;101214.05;1697743;83;20135;-84
2021/12/18 13:02:39;;;;;;;;;;;;;;;2.21;100.00;101211.05;1698060;83;20239;-83
2021/12/18 13:05:10;;;;;;;;;;;;;;;2.30;100.00;101222.76;1699124;83;20107;-81
2021/12/18 13:07:48;;;;;;;;;;;;;;;2.20;100.00;101205.45;1699802;83;20444;-84
2021/12/18 13:10:22;;;;;;;;;;;;;;;2.25;100.00;101179.16;1696674;83;21046;-82
2021/12/18 13:12:56;;;;;;;;;;;;;;;2.25;100.00;101199.56;1700059;82;20239;-82
2021/12/18 13:15:22;;;;;;;;;;;;;;;2.37;100.00;101198.09;1693722;83;20506;-82
2021/12/18 13:17:48;;;;;;;;;;;;;;;2.33;100.00;101184.38;1697992;83;20206;-82
2021/12/18 13:20:14;;;;;;;;;;;;;;;2.30;100.00;101199.30;1695208;83;20185;-81
2021/12/18 13:22:39;;;;;;;;;;;;;;;2.25;100.00;101218.25;1694274;83;21187;-81
2021/12/18 13:25:13;;;;;;;;;;;;;;;2.27;100.00;101182.52;1703572;82;20886;-76
2021/12/18 13:27:41;;;;;;;;;;;;;;;2.38;100.00;101185.45;1696584;83;20227;-77